createdAt,value
2023-05-12T00:00:19.244Z,2.90
2023-05-12T00:02:46.841Z,2.40
2023-05-12T00:05:13.981Z,1.90
2023-05-12T00:07:40.946Z,2.90
2023-05-12T00:10:08.237Z,2.40
2023-05-12T00:12:35.420Z,2.70
2023-05-12T00:15:03.150Z,2.50
2023-05-12T00:17:30.541Z,2.10
2023-05-12T00:19:57.550Z,2.40
2023-05-12T00:22:24.576Z,2.20
2023-05-12T00:24:51.828Z,2.30
2023-05-12T00:27:18.801Z,2.60
2023-05-12T00:29:46.035Z,2.70
2023-05-12T00:32:13.132Z,2.40
2023-05-12T00:34:40.130Z,2.70
2023-05-12T00:37:07.454Z,2.50
2023-05-12T00:39:34.511Z,2.50
2023-05-12T00:42:02.027Z,2.30
2023-05-12T00:44:29.055Z,2.30
2023-05-12T00:46:56.341Z,2.20
2023-05-12T00:49:25.862Z,2.30
2023-05-12T00:51:55.093Z,2.30
2023-05-12T00:54:23.110Z,2.20
2023-05-12T00:56:50.316Z,2.70
2023-05-12T00:59:17.767Z,2.20
2023-05-12T01:01:46.742Z,2.30
2023-05-12T01:04:13.943Z,2.10
2023-05-12T01:06:49.822Z,2.10
2023-05-12T01:09:17.576Z,2.30
2023-05-12T01:11:45.002Z,2.50
2023-05-12T01:14:12.282Z,2.20
2023-05-12T01:16:52.304Z,1.90
2023-05-12T01:19:34.008Z,2.20
2023-05-12T01:22:01.082Z,2.10
2023-05-12T01:24:29.575Z,2.30
2023-05-12T01:26:56.949Z,1.90
2023-05-12T01:29:24.005Z,2.40
2023-05-12T01:31:51.072Z,2.00
2023-05-12T01:34:21.398Z,2.20
2023-05-12T01:36:51.300Z,2.20
2023-05-12T01:39:18.674Z,2.40
2023-05-12T01:41:45.879Z,2.40
2023-05-12T01:44:12.923Z,2.50
2023-05-12T01:46:40.072Z,2.60
2023-05-12T01:49:10.097Z,2.80
2023-05-12T01:51:37.296Z,2.50
2023-05-12T01:54:04.680Z,2.60
2023-05-12T01:56:33.697Z,2.50
2023-05-12T01:59:01.203Z,2.80
2023-05-12T02:01:29.095Z,2.70
2023-05-12T02:03:56.755Z,3.00
2023-05-12T02:06:24.202Z,2.40
2023-05-12T02:08:51.308Z,2.50
2023-05-12T02:11:18.333Z,2.50
2023-05-12T02:13:45.455Z,2.50
2023-05-12T02:16:12.797Z,2.20
2023-05-12T02:18:40.723Z,2.60
2023-05-12T02:21:07.967Z,3.20
2023-05-12T02:23:35.018Z,2.50
2023-05-12T02:26:02.239Z,2.80
2023-05-12T02:28:29.297Z,3.00
2023-05-12T02:30:57.132Z,2.50
2023-05-12T02:33:25.052Z,2.60
2023-05-12T02:35:52.077Z,2.80
2023-05-12T02:38:19.345Z,2.60
2023-05-12T02:40:46.677Z,2.50
2023-05-12T02:45:41.655Z,2.30
2023-05-12T02:48:09.085Z,2.30
2023-05-12T02:50:36.347Z,2.70
2023-05-12T02:53:03.559Z,2.50
2023-05-12T02:55:30.603Z,3.10
2023-05-12T02:57:57.623Z,2.80
2023-05-12T03:00:24.858Z,3.20
2023-05-12T03:02:52.592Z,3.30
2023-05-12T03:05:19.956Z,3.10
2023-05-12T03:07:49.468Z,3.30
2023-05-12T03:10:19.815Z,3.10
2023-05-12T03:12:47.099Z,3.50
2023-05-12T03:15:14.333Z,3.60
2023-05-12T03:17:41.711Z,3.30
2023-05-12T03:20:09.131Z,3.60
2023-05-12T03:22:36.675Z,4.00
2023-05-12T03:25:05.161Z,3.30
2023-05-12T03:27:36.720Z,3.70
2023-05-12T03:30:05.866Z,2.90
2023-05-12T03:32:35.586Z,2.90
2023-05-12T03:35:02.889Z,3.10
2023-05-12T03:37:30.287Z,3.30
2023-05-12T03:39:58.312Z,2.80
2023-05-12T03:44:52.632Z,3.00
2023-05-12T03:47:19.932Z,2.80
2023-05-12T03:49:47.070Z,3.30
2023-05-12T03:52:14.738Z,2.80
2023-05-12T03:54:41.841Z,2.80
2023-05-12T03:57:08.837Z,2.80
2023-05-12T03:59:35.865Z,2.90
2023-05-12T04:02:03.073Z,3.00
2023-05-12T04:04:30.235Z,3.10
2023-05-12T04:06:59.927Z,3.10
2023-05-12T04:09:26.907Z,3.00
2023-05-12T04:11:53.926Z,2.90
2023-05-12T04:14:29.033Z,3.40
2023-05-12T04:17:03.013Z,3.00
2023-05-12T04:19:29.926Z,3.10
2023-05-12T04:21:56.983Z,3.60
2023-05-12T04:24:25.691Z,3.50
2023-05-12T04:26:52.899Z,3.00
2023-05-12T04:29:20.641Z,2.90
2023-05-12T04:31:47.676Z,3.20
2023-05-12T04:34:14.918Z,3.30
2023-05-12T04:36:41.956Z,3.70
2023-05-12T04:39:09.682Z,3.50
2023-05-12T04:41:37.257Z,3.40
2023-05-12T04:44:05.354Z,3.40
2023-05-12T04:46:33.267Z,3.50
2023-05-12T04:49:00.877Z,2.80
2023-05-12T04:51:27.898Z,3.10
2023-05-12T04:53:55.290Z,3.60
2023-05-12T04:56:22.691Z,3.40
2023-05-12T04:58:50.032Z,2.80
2023-05-12T05:01:17.150Z,3.30
2023-05-12T05:03:44.487Z,3.20
2023-05-12T05:06:12.073Z,3.00
2023-05-12T05:08:39.307Z,2.90
2023-05-12T05:11:06.451Z,3.10
2023-05-12T05:13:33.473Z,3.30
2023-05-12T05:16:00.497Z,3.30
2023-05-12T05:18:29.359Z,3.20
2023-05-12T05:20:58.771Z,4.00
2023-05-12T05:23:26.927Z,3.30
2023-05-12T05:25:54.356Z,3.90
2023-05-12T05:28:21.512Z,3.30
2023-05-12T05:30:48.819Z,3.40
2023-05-12T05:33:15.967Z,2.90
2023-05-12T05:35:43.222Z,3.40
2023-05-12T05:38:11.266Z,3.20
2023-05-12T05:40:51.542Z,3.40
2023-05-12T05:43:21.021Z,3.00
2023-05-12T05:45:50.320Z,3.50
2023-05-12T05:48:18.322Z,3.00
2023-05-12T05:50:46.800Z,2.90
2023-05-12T05:53:13.896Z,3.10
2023-05-12T05:55:41.351Z,2.90
2023-05-12T05:58:08.837Z,3.10
2023-05-12T06:00:36.009Z,2.80
2023-05-12T06:03:03.246Z,3.10
2023-05-12T06:05:30.981Z,3.60
2023-05-12T06:07:58.285Z,3.20
2023-05-12T06:10:25.927Z,2.90
2023-05-12T06:12:52.967Z,2.90
2023-05-12T06:15:21.684Z,3.10
2023-05-12T06:17:50.016Z,2.80
2023-05-12T06:20:17.593Z,2.70
2023-05-12T06:22:45.499Z,2.80
2023-05-12T06:25:16.616Z,2.70
2023-05-12T06:27:43.632Z,3.00
2023-05-12T06:30:15.644Z,2.70
2023-05-12T06:32:43.407Z,2.60
2023-05-12T06:35:10.835Z,2.60
2023-05-12T06:37:38.640Z,2.90
2023-05-12T06:40:06.449Z,2.70
2023-05-12T06:42:33.475Z,2.50
2023-05-12T06:45:03.877Z,2.50
2023-05-12T06:47:32.205Z,2.40
2023-05-12T06:49:59.256Z,2.60
2023-05-12T06:52:26.362Z,2.60
2023-05-12T06:54:53.469Z,2.50
2023-05-12T06:57:20.663Z,2.30
2023-05-12T06:59:47.892Z,2.30
2023-05-12T07:02:14.896Z,2.10
2023-05-12T07:04:42.070Z,2.20
2023-05-12T07:07:09.054Z,2.20
2023-05-12T07:09:36.318Z,2.10
2023-05-12T07:12:04.228Z,1.60
2023-05-12T07:16:58.186Z,1.60
2023-05-12T07:19:25.283Z,1.90
2023-05-12T07:21:53.408Z,1.60
2023-05-12T07:24:20.765Z,1.60
2023-05-12T07:26:47.815Z,1.80
2023-05-12T07:29:14.865Z,1.50
2023-05-12T07:31:42.182Z,1.50
2023-05-12T07:34:09.475Z,1.30
2023-05-12T07:37:49.374Z,1.50
2023-05-12T07:40:16.358Z,1.60
2023-05-12T07:42:43.340Z,1.50
2023-05-12T07:45:10.950Z,1.30
2023-05-12T07:47:37.918Z,1.40
2023-05-12T07:50:05.588Z,1.60
2023-05-12T07:52:33.048Z,1.20
2023-05-12T07:55:00.023Z,1.50
2023-05-12T07:57:27.168Z,1.40
2023-05-12T07:59:59.591Z,1.80
2023-05-12T08:02:26.860Z,1.80
2023-05-12T08:04:53.960Z,1.90
2023-05-12T08:07:53.957Z,1.70
2023-05-12T08:10:21.059Z,1.80
2023-05-12T08:12:48.092Z,1.70
2023-05-12T08:15:15.226Z,1.60
2023-05-12T08:17:42.435Z,1.60
2023-05-12T08:20:10.904Z,1.50
2023-05-12T08:22:38.144Z,1.50
2023-05-12T08:25:06.132Z,1.50
2023-05-12T08:27:33.136Z,2.10
2023-05-12T08:30:11.854Z,1.50
2023-05-12T08:32:39.209Z,1.90
2023-05-12T08:35:06.675Z,2.00
2023-05-12T08:37:44.706Z,1.90
2023-05-12T08:40:18.216Z,2.20
2023-05-12T08:43:21.510Z,2.00
2023-05-12T08:45:48.737Z,1.80
2023-05-12T08:48:15.923Z,1.70
2023-05-12T08:50:43.531Z,1.90
2023-05-12T08:53:12.037Z,1.60
2023-05-12T08:55:50.168Z,1.70
2023-05-12T08:58:39.996Z,1.70
2023-05-12T09:01:07.997Z,1.60
2023-05-12T09:03:35.506Z,1.40
2023-05-12T09:06:03.763Z,1.50
2023-05-12T09:08:36.103Z,1.70
2023-05-12T09:11:03.394Z,1.60
2023-05-12T09:13:46.352Z,1.50
2023-05-12T09:16:13.844Z,1.30
2023-05-12T09:18:57.863Z,1.30
2023-05-12T09:21:25.443Z,1.30
2023-05-12T09:24:11.876Z,1.40
2023-05-12T09:26:49.746Z,1.40
2023-05-12T09:29:27.818Z,1.30
2023-05-12T09:31:58.791Z,1.40
2023-05-12T09:34:30.745Z,1.30
2023-05-12T09:36:59.245Z,1.30
2023-05-12T09:39:26.366Z,1.20
2023-05-12T09:41:54.079Z,1.60
2023-05-12T09:44:21.667Z,1.40
2023-05-12T09:46:49.250Z,1.40
2023-05-12T09:49:26.098Z,1.30
2023-05-12T09:51:54.333Z,1.20
2023-05-12T09:54:28.554Z,1.30
2023-05-12T09:57:02.740Z,1.00
2023-05-12T09:59:32.846Z,1.40
2023-05-12T10:02:01.255Z,1.40
2023-05-12T10:04:29.514Z,1.30
2023-05-12T10:06:56.547Z,0.90
2023-05-12T10:09:28.784Z,1.40
2023-05-12T10:11:56.723Z,1.30
2023-05-12T10:14:24.132Z,1.30
2023-05-12T10:16:51.631Z,1.10
2023-05-12T10:19:19.298Z,1.50
2023-05-12T10:21:46.440Z,1.20
2023-05-12T10:24:17.158Z,1.20
2023-05-12T10:26:44.973Z,1.30
2023-05-12T10:29:12.639Z,1.10
2023-05-12T10:31:39.785Z,1.20
2023-05-12T10:34:07.240Z,1.20
2023-05-12T10:36:47.608Z,1.20
2023-05-12T10:39:17.985Z,1.30
2023-05-12T10:41:44.987Z,1.20
2023-05-12T10:44:12.359Z,1.20
2023-05-12T10:46:39.666Z,1.10
2023-05-12T10:49:06.689Z,1.20
2023-05-12T10:51:35.069Z,1.00
2023-05-12T10:54:07.946Z,1.10
2023-05-12T10:56:39.944Z,1.40
2023-05-12T10:59:14.895Z,1.30
2023-05-12T11:01:43.204Z,1.20
2023-05-12T11:04:15.711Z,1.00
2023-05-12T11:06:44.995Z,1.10
2023-05-12T11:09:13.353Z,1.10
2023-05-12T11:11:41.023Z,1.10
2023-05-12T11:14:08.601Z,1.40
2023-05-12T11:16:42.432Z,1.10
2023-05-12T11:19:09.568Z,1.30
2023-05-12T11:21:37.327Z,1.40
2023-05-12T11:24:04.658Z,1.50
2023-05-12T11:26:31.940Z,1.20
2023-05-12T11:28:59.226Z,1.00
2023-05-12T11:31:26.421Z,1.20
2023-05-12T11:34:12.680Z,1.10
2023-05-12T11:36:42.585Z,1.00
2023-05-12T11:39:17.053Z,1.10
2023-05-12T11:41:45.192Z,1.10
2023-05-12T11:47:02.947Z,1.00
2023-05-12T11:49:30.968Z,0.90
2023-05-12T11:54:28.840Z,1.50
2023-05-12T11:56:56.446Z,1.20
2023-05-12T11:59:28.291Z,1.10
2023-05-12T12:01:55.566Z,1.20
2023-05-12T12:04:40.917Z,1.00
2023-05-12T12:07:08.642Z,1.10
2023-05-12T12:09:37.377Z,1.10
2023-05-12T12:12:05.415Z,1.20
2023-05-12T12:14:33.112Z,1.00
2023-05-12T12:17:00.511Z,1.10
2023-05-12T12:19:28.571Z,1.20
2023-05-12T12:21:56.235Z,1.20
2023-05-12T12:24:23.976Z,1.20
2023-05-12T12:26:51.052Z,0.80
2023-05-12T12:29:18.463Z,1.10
2023-05-12T12:31:46.066Z,1.10
2023-05-12T12:34:13.161Z,1.20
2023-05-12T12:36:40.402Z,1.30
2023-05-12T12:39:07.992Z,1.10
2023-05-12T12:41:35.064Z,1.10
2023-05-12T12:44:02.714Z,1.10
2023-05-12T12:46:29.757Z,1.20
2023-05-12T12:48:58.284Z,1.10
2023-05-12T12:51:38.545Z,1.00
2023-05-12T12:54:12.439Z,0.80
2023-05-12T12:56:39.514Z,1.20
2023-05-12T12:59:06.582Z,1.00
2023-05-12T13:01:34.118Z,1.40
2023-05-12T13:06:29.428Z,1.30
2023-05-12T13:08:56.726Z,1.10
2023-05-12T13:11:23.832Z,0.90
2023-05-12T13:13:50.810Z,0.90
2023-05-12T13:16:18.597Z,1.30
2023-05-12T13:23:40.061Z,1.00
2023-05-12T13:26:07.053Z,1.00
2023-05-12T13:28:34.070Z,1.20
2023-05-12T13:31:01.379Z,1.10
2023-05-12T13:33:28.968Z,1.10
2023-05-12T13:38:23.145Z,1.40
2023-05-12T13:40:50.495Z,1.30
2023-05-12T13:43:18.533Z,1.20
2023-05-12T13:45:45.953Z,1.30
2023-05-12T13:48:13.268Z,1.30
2023-05-12T13:50:40.358Z,1.30
2023-05-12T13:53:07.460Z,1.30
2023-05-12T13:55:40.645Z,1.20
2023-05-12T13:58:08.049Z,1.40
2023-05-12T14:00:35.109Z,1.30
2023-05-12T14:03:02.252Z,1.00
2023-05-12T14:05:29.613Z,1.10
2023-05-12T14:07:57.421Z,1.40
2023-05-12T14:10:24.546Z,1.20
2023-05-12T14:12:51.642Z,1.30
2023-05-12T14:17:48.625Z,1.50
2023-05-12T14:20:16.171Z,1.50
2023-05-12T14:22:43.244Z,1.20
2023-05-12T14:25:10.552Z,1.50
2023-05-12T14:27:37.825Z,1.40
2023-05-12T14:30:07.546Z,1.10
2023-05-12T14:32:34.738Z,1.00
2023-05-12T14:35:01.926Z,1.30
2023-05-12T14:37:28.980Z,1.20
2023-05-12T14:39:57.126Z,1.20
2023-05-12T14:42:24.964Z,1.10
2023-05-12T14:47:19.020Z,1.00
2023-05-12T14:49:46.353Z,1.10
2023-05-12T14:52:13.406Z,1.00
2023-05-12T14:54:40.655Z,1.20
2023-05-12T14:57:08.239Z,1.00
2023-05-12T14:59:35.881Z,1.00
2023-05-12T15:02:02.974Z,1.10
2023-05-12T15:04:30.653Z,1.30
2023-05-12T15:06:57.705Z,1.40
2023-05-12T15:09:25.077Z,1.30
2023-05-12T15:11:52.730Z,1.30
2023-05-12T15:14:19.729Z,1.20
2023-05-12T15:16:47.289Z,0.90
2023-05-12T15:19:15.508Z,1.20
2023-05-12T15:21:42.920Z,1.20
2023-05-12T15:24:09.921Z,1.10
2023-05-12T15:26:39.498Z,1.30
2023-05-12T15:29:07.453Z,1.10
2023-05-12T15:31:35.456Z,1.10
2023-05-12T15:34:03.289Z,1.10
2023-05-12T15:38:58.251Z,1.20
2023-05-12T15:41:25.332Z,1.40
2023-05-12T15:43:52.442Z,1.20
2023-05-12T15:46:19.593Z,1.20
2023-05-12T15:48:48.768Z,1.30
2023-05-12T15:51:15.781Z,1.40
2023-05-12T15:53:42.957Z,1.30
2023-05-12T15:56:09.923Z,1.10
2023-05-12T15:58:37.338Z,1.40
2023-05-12T16:01:04.606Z,1.30
2023-05-12T16:03:32.016Z,1.30
2023-05-12T16:05:59.132Z,1.10
2023-05-12T16:08:27.046Z,1.40
2023-05-12T16:10:54.487Z,1.40
2023-05-12T16:13:21.541Z,1.30
2023-05-12T16:15:52.141Z,1.50
2023-05-12T16:18:19.284Z,1.30
2023-05-12T16:20:47.597Z,1.40
2023-05-12T16:23:14.834Z,1.30
2023-05-12T16:25:42.530Z,1.40
2023-05-12T16:28:09.528Z,1.20
2023-05-12T16:30:37.278Z,1.20
2023-05-12T16:35:32.071Z,1.20
2023-05-12T16:37:59.122Z,1.20
2023-05-12T16:40:26.096Z,1.70
2023-05-12T16:42:54.933Z,1.20
2023-05-12T16:45:25.751Z,1.10
2023-05-12T16:47:53.375Z,0.90
2023-05-12T16:50:20.543Z,1.10
2023-05-12T16:52:47.631Z,1.00
2023-05-12T16:55:14.641Z,1.20
2023-05-12T16:57:43.376Z,1.90
2023-05-12T17:00:11.640Z,1.40
2023-05-12T17:02:39.188Z,1.20
2023-05-12T17:05:06.960Z,1.30
2023-05-12T17:07:35.451Z,1.30
2023-05-12T17:10:02.950Z,1.20
2023-05-12T17:12:30.109Z,1.50
2023-05-12T17:15:06.885Z,1.40
2023-05-12T17:17:35.285Z,0.80
2023-05-12T17:20:02.770Z,1.50
2023-05-12T17:22:31.148Z,1.30
2023-05-12T17:24:58.364Z,1.30
2023-05-12T17:27:26.004Z,1.10
2023-05-12T17:29:53.009Z,1.40
2023-05-12T17:32:19.978Z,1.40
2023-05-12T17:34:50.378Z,1.40
2023-05-12T17:37:18.342Z,1.50
2023-05-12T17:39:46.396Z,1.70
2023-05-12T17:44:40.476Z,1.50
2023-05-12T17:47:07.780Z,1.70
2023-05-12T17:49:35.316Z,2.00
2023-05-12T17:52:02.409Z,2.20
2023-05-12T17:54:29.618Z,2.10
2023-05-12T17:56:56.642Z,1.60
2023-05-12T17:59:23.718Z,1.90
2023-05-12T18:01:51.940Z,1.80
2023-05-12T18:04:19.563Z,1.70
2023-05-12T18:06:50.374Z,1.70
2023-05-12T18:09:18.038Z,1.80
2023-05-12T18:11:45.109Z,1.90
2023-05-12T18:14:12.253Z,1.50
2023-05-12T18:16:39.588Z,1.60
2023-05-12T18:19:06.771Z,1.60
2023-05-12T18:21:33.850Z,1.80
2023-05-12T18:24:01.692Z,1.40
2023-05-12T18:26:29.806Z,1.40
2023-05-12T18:28:56.841Z,1.60
2023-05-12T18:31:23.989Z,1.40
2023-05-12T18:33:51.290Z,1.60
2023-05-12T18:36:18.520Z,1.80
2023-05-12T18:38:46.247Z,1.40
2023-05-12T18:41:13.351Z,1.40
2023-05-12T18:43:40.443Z,1.60
2023-05-12T18:46:07.682Z,1.40
2023-05-12T18:48:34.984Z,1.50
2023-05-12T18:51:02.313Z,1.60
2023-05-12T18:53:29.406Z,1.90
2023-05-12T18:55:56.854Z,1.80
2023-05-12T18:58:23.891Z,1.60
2023-05-12T19:00:50.974Z,2.00
2023-05-12T19:03:18.556Z,1.80
2023-05-12T19:05:46.583Z,1.60
2023-05-12T19:08:13.841Z,2.50
2023-05-12T19:10:41.371Z,1.60
2023-05-12T19:13:08.573Z,1.70
2023-05-12T19:15:36.264Z,1.50
2023-05-12T19:18:03.534Z,1.50
2023-05-12T19:20:31.180Z,1.60
2023-05-12T19:22:59.879Z,1.80
2023-05-12T19:25:27.280Z,2.40
2023-05-12T19:27:54.764Z,2.70
2023-05-12T19:30:21.831Z,3.30
2023-05-12T19:32:50.308Z,3.50
2023-05-12T19:35:17.451Z,3.60
2023-05-12T19:37:44.552Z,3.80
2023-05-12T19:40:12.549Z,3.90
2023-05-12T19:45:07.190Z,4.00
2023-05-12T19:47:34.502Z,3.90
2023-05-12T19:50:01.543Z,4.20
2023-05-12T19:54:13.557Z,4.60
2023-05-12T19:56:40.580Z,4.40
2023-05-12T19:59:08.165Z,4.70
2023-05-12T20:01:35.464Z,4.70
2023-05-12T20:04:02.957Z,4.90
2023-05-12T20:06:31.032Z,4.70
2023-05-12T20:11:25.225Z,4.10
2023-05-12T20:13:52.152Z,3.80
2023-05-12T20:16:19.161Z,4.20
2023-05-12T20:18:46.929Z,4.00
2023-05-12T20:21:13.980Z,3.90
2023-05-12T20:23:41.043Z,3.40
2023-05-12T20:26:08.579Z,3.60
2023-05-12T20:28:36.219Z,3.90
2023-05-12T20:31:03.726Z,3.40
2023-05-12T20:33:30.802Z,3.20
2023-05-12T20:35:57.804Z,3.40
2023-05-12T20:38:25.027Z,3.60
2023-05-12T20:40:52.314Z,2.90
2023-05-12T20:43:19.568Z,3.20
2023-05-12T20:45:46.622Z,2.90
2023-05-12T20:48:13.879Z,3.00
2023-05-12T20:50:41.023Z,3.20
2023-05-12T20:53:08.075Z,3.10
2023-05-12T20:55:35.581Z,3.50
2023-05-12T20:58:02.760Z,3.00
2023-05-12T21:00:29.808Z,3.20
2023-05-12T21:02:58.226Z,3.00
2023-05-12T21:05:25.318Z,3.30
2023-05-12T21:07:52.857Z,2.60
2023-05-12T21:10:20.422Z,3.00
2023-05-12T21:12:47.821Z,3.00
2023-05-12T21:15:14.887Z,3.00
2023-05-12T21:17:42.207Z,3.00
2023-05-12T21:20:12.214Z,3.10
2023-05-12T21:22:40.945Z,3.00
2023-05-12T21:25:08.481Z,2.60
2023-05-12T21:27:40.487Z,2.30
2023-05-12T21:30:08.862Z,2.70
2023-05-12T21:32:36.345Z,2.30
2023-05-12T21:35:03.836Z,2.40
2023-05-12T21:37:30.967Z,2.10
2023-05-12T21:39:58.018Z,2.30
2023-05-12T21:42:25.020Z,1.80
2023-05-12T21:44:52.437Z,1.90
2023-05-12T21:47:19.421Z,2.10
2023-05-12T21:49:46.414Z,2.40
2023-05-12T21:52:13.411Z,2.10
2023-05-12T21:54:40.416Z,2.70
2023-05-12T21:57:07.573Z,2.30
2023-05-12T21:59:34.599Z,2.00
2023-05-12T22:02:01.562Z,2.30
2023-05-12T22:04:28.677Z,2.30
2023-05-12T22:06:56.053Z,2.10
2023-05-12T22:09:23.336Z,1.80
2023-05-12T22:11:50.264Z,1.90
2023-05-12T22:14:17.589Z,1.70
2023-05-12T22:16:45.135Z,1.80
2023-05-12T22:19:12.818Z,2.30
2023-05-12T22:21:40.172Z,2.20
2023-05-12T22:24:07.584Z,2.30
2023-05-12T22:26:34.631Z,2.00
2023-05-12T22:29:01.969Z,1.80
2023-05-12T22:31:29.070Z,2.10
2023-05-12T22:33:56.266Z,2.50
2023-05-12T22:36:23.245Z,2.20
2023-05-12T22:38:50.459Z,2.10
2023-05-12T22:41:17.469Z,2.00
2023-05-12T22:43:44.465Z,1.70
2023-05-12T22:46:11.618Z,2.40
2023-05-12T22:48:39.441Z,2.30
2023-05-12T22:51:07.025Z,2.30
2023-05-12T22:53:36.274Z,2.30
2023-05-12T22:56:03.717Z,2.30
2023-05-12T22:58:31.174Z,2.40
2023-05-12T23:00:58.538Z,1.90
2023-05-12T23:03:25.670Z,2.20
2023-05-12T23:05:53.087Z,2.50
2023-05-12T23:08:20.110Z,2.10
2023-05-12T23:10:47.513Z,2.00
2023-05-12T23:13:14.565Z,2.10
2023-05-12T23:15:41.850Z,2.30
2023-05-12T23:18:08.847Z,2.30
2023-05-12T23:20:35.902Z,1.90
2023-05-12T23:23:03.320Z,2.60
2023-05-12T23:25:30.428Z,2.80
2023-05-12T23:27:57.459Z,2.20
2023-05-12T23:30:24.651Z,2.60
2023-05-12T23:32:52.171Z,2.20
2023-05-12T23:35:20.061Z,2.00
2023-05-12T23:37:47.034Z,2.30
2023-05-12T23:40:14.009Z,2.30
2023-05-12T23:42:41.303Z,2.50
2023-05-12T23:45:08.913Z,2.50
2023-05-12T23:47:36.397Z,2.20
2023-05-12T23:50:03.844Z,2.30
2023-05-12T23:52:31.052Z,2.10
2023-05-12T23:54:58.027Z,2.20
2023-05-12T23:57:25.379Z,2.50
2023-05-12T23:59:52.616Z,2.40
